RJOE(METAR)
04/28 17:00
METAR RJOE 280800Z 19011KT 9999 FEW030 20/02 Q1006 RMK 1CU030 A2971=
戻る
トップページへ戻る
IMOC Co,.Ltd.